| Date | Time | Temp. (oF) | Dew Point (oF) | Rel. Hum. (%) | Press. (in.) | Wind Dir. | Wind Speed (mph) | Hourly Rainfall (in.) |
|
|---|---|---|---|---|---|---|---|---|---|
| 1 | 11/10 | 00:00 | 45 | 33 | 65 | 29.93 | SW | 4 | 0.00 |
| 2 | 11/09 | 23:00 | 45 | 34 | 67 | 29.92 | WSW | 4 | 0.00 |
| 3 | 11/09 | 22:00 | 45 | 33 | 65 | 29.92 | SSW | 2 | 0.00 |
| 4 | 11/09 | 21:00 | 46 | 34 | 63 | 29.92 | WSW | 2 | 0.00 |
| 5 | 11/09 | 20:00 | 46 | 33 | 61 | 29.90 | WSW | 1 | 0.00 |
| 6 | 11/09 | 19:00 | 47 | 33 | 59 | 29.89 | WNW | 1 | 0.00 |
| 7 | 11/09 | 18:00 | 47 | 32 | 58 | 29.87 | W | 5 | 0.00 |
| 8 | 11/09 | 17:00 | 49 | 33 | 54 | 29.84 | WNW | 7 | 0.00 |
| 9 | 11/09 | 16:00 | 52 | 34 | 51 | 29.81 | WSW | 8 | 0.00 |
| 10 | 11/09 | 15:00 | 54 | 36 | 51 | 29.80 | WSW | 7 | 0.00 |
| 11 | 11/09 | 14:00 | 52 | 35 | 54 | 29.81 | NNW | 7 | 0.00 |
| 12 | 11/09 | 13:00 | 52 | 36 | 55 | 29.80 | NW | 6 | 0.00 |
| 13 | 11/09 | 12:00 | 53 | 35 | 52 | 29.80 | W | 5 | 0.00 |
| 14 | 11/09 | 11:00 | 54 | 37 | 53 | 29.81 | WNW | 6 | 0.00 |
| 15 | 11/09 | 10:00 | 52 | 36 | 56 | 29.80 | W | 4 | 0.00 |
| 16 | 11/09 | 09:00 | 51 | 37 | 60 | 29.80 | NW | 7 | 0.00 |
| 17 | 11/09 | 08:00 | 47 | 36 | 68 | 29.79 | WSW | 5 | 0.00 |
| 18 | 11/09 | 07:00 | 43 | 35 | 75 | 29.77 | SW | 1 | 0.00 |
| 19 | 11/09 | 06:00 | 44 | 35 | 71 | 29.74 | SW | 3 | 0.00 |
| 20 | 11/09 | 05:00 | 45 | 35 | 70 | 29.73 | WSW | 3 | 0.00 |
| 21 | 11/09 | 04:00 | 47 | 36 | 68 | 29.71 | SW | 2 | 0.00 |
| 22 | 11/09 | 03:00 | 49 | 38 | 66 | 29.70 | SW | 2 | 0.00 |
| 23 | 11/09 | 02:00 | 49 | 39 | 70 | 29.69 | SW | 2 | 0.00 |
| 24 | 11/09 | 01:00 | 49 | 39 | 71 | 29.68 | WSW | 2 | 0.00 |